createdAt,value
2018-12-27T00:01:24.545Z,9.87
2018-12-27T00:04:12.244Z,9.33
2018-12-27T00:07:00.260Z,9.93
2018-12-27T00:09:47.979Z,9.73
2018-12-27T00:12:35.721Z,9.53
2018-12-27T00:15:23.767Z,10.50
2018-12-27T00:18:11.459Z,8.97
2018-12-27T00:20:59.164Z,11.73
2018-12-27T00:23:46.850Z,9.27
2018-12-27T00:26:34.548Z,9.40
2018-12-27T00:29:22.249Z,9.27
2018-12-27T00:32:03.484Z,10.20
2018-12-27T00:34:44.110Z,9.77
2018-12-27T00:37:24.590Z,9.20
2018-12-27T00:40:05.316Z,9.63
2018-12-27T00:42:46.032Z,10.07
2018-12-27T00:45:26.916Z,9.37
2018-12-27T00:48:07.289Z,9.40
2018-12-27T00:50:48.064Z,9.50
2018-12-27T00:53:29.049Z,10.53
2018-12-27T00:56:09.900Z,9.87
2018-12-27T00:58:50.391Z,10.80
2018-12-27T01:01:31.278Z,10.97
2018-12-27T01:04:12.096Z,10.97
2018-12-27T01:06:52.883Z,10.33
2018-12-27T01:09:33.898Z,10.97
2018-12-27T01:12:14.437Z,11.70
2018-12-27T01:14:55.234Z,9.40
2018-12-27T01:17:36.272Z,10.27
2018-12-27T01:20:17.058Z,11.13
2018-12-27T01:22:57.887Z,11.10
2018-12-27T01:25:38.437Z,10.63
2018-12-27T01:28:19.080Z,10.63
2018-12-27T01:30:59.825Z,10.37
2018-12-27T01:33:40.611Z,10.63
2018-12-27T01:36:21.366Z,10.80
2018-12-27T01:39:02.172Z,11.57
2018-12-27T01:41:42.608Z,12.30
2018-12-27T01:44:23.333Z,11.67
2018-12-27T01:47:04.049Z,12.13
2018-12-27T01:49:44.775Z,11.27
2018-12-27T01:52:25.726Z,11.43
2018-12-27T01:55:06.416Z,12.67
2018-12-27T01:57:46.911Z,11.87
2018-12-27T02:00:27.614Z,11.60
2018-12-27T02:03:08.668Z,11.37
2018-12-27T02:05:49.442Z,10.80
2018-12-27T02:08:30.183Z,11.47
2018-12-27T02:11:10.936Z,12.10
2018-12-27T02:13:51.566Z,11.03
2018-12-27T02:16:31.922Z,11.60
2018-12-27T02:19:12.846Z,12.07
2018-12-27T02:21:53.630Z,11.17
2018-12-27T02:24:34.377Z,12.07
2018-12-27T02:27:15.269Z,10.60
2018-12-27T02:29:55.919Z,11.67
2018-12-27T02:32:36.648Z,11.13
2018-12-27T02:35:17.562Z,11.77
2018-12-27T02:37:58.091Z,11.33
2018-12-27T02:40:38.601Z,11.20
2018-12-27T02:43:19.210Z,10.90
2018-12-27T02:45:59.716Z,10.77
2018-12-27T02:48:40.412Z,11.43
2018-12-27T02:51:20.859Z,10.83
2018-12-27T02:54:01.832Z,12.30
2018-12-27T02:56:42.472Z,11.00
2018-12-27T02:59:22.957Z,11.03
2018-12-27T03:02:03.625Z,10.47
2018-12-27T03:04:44.294Z,11.67
2018-12-27T03:07:25.084Z,11.47
2018-12-27T03:10:05.917Z,12.57
2018-12-27T03:12:46.581Z,12.57
2018-12-27T03:15:27.510Z,11.63
2018-12-27T03:18:08.273Z,11.23
2018-12-27T03:20:49.340Z,10.97
2018-12-27T03:23:30.204Z,11.17
2018-12-27T03:26:11.111Z,10.57
2018-12-27T03:28:51.684Z,11.70
2018-12-27T03:31:32.522Z,11.93
2018-12-27T03:34:12.992Z,12.33
2018-12-27T03:36:53.500Z,10.87
2018-12-27T03:39:33.791Z,12.43
2018-12-27T03:42:14.889Z,10.63
2018-12-27T03:44:55.679Z,10.73
2018-12-27T03:47:36.688Z,10.50
2018-12-27T03:50:17.494Z,10.63
2018-12-27T03:52:58.342Z,10.53
2018-12-27T03:55:39.095Z,10.83
2018-12-27T03:58:19.758Z,10.37
2018-12-27T04:01:00.499Z,10.10
2018-12-27T04:03:41.371Z,11.10
2018-12-27T04:06:22.139Z,11.10
2018-12-27T04:09:02.729Z,10.20
2018-12-27T04:11:43.840Z,13.27
2018-12-27T04:14:24.581Z,10.47
2018-12-27T04:17:05.427Z,9.80
2018-12-27T04:19:46.135Z,10.47
2018-12-27T04:22:26.887Z,9.77
2018-12-27T04:25:07.298Z,9.53
2018-12-27T04:27:47.628Z,9.37
2018-12-27T04:30:28.133Z,11.20
2018-12-27T04:33:09.036Z,10.77
2018-12-27T04:35:49.458Z,11.97
2018-12-27T04:38:30.259Z,11.30
2018-12-27T04:41:10.664Z,11.20
2018-12-27T04:43:51.353Z,11.27
2018-12-27T04:46:32.136Z,12.30
2018-12-27T04:49:12.845Z,11.00
2018-12-27T04:51:53.210Z,10.00
2018-12-27T04:54:34.506Z,10.43
2018-12-27T04:57:15.681Z,10.33
2018-12-27T04:59:56.564Z,10.13
2018-12-27T05:02:36.914Z,10.60
2018-12-27T05:05:17.873Z,8.87
2018-12-27T05:07:58.390Z,10.43
2018-12-27T05:10:39.228Z,9.97
2018-12-27T05:13:20.100Z,10.37
2018-12-27T05:16:01.151Z,10.37
2018-12-27T05:18:41.848Z,10.33
2018-12-27T05:21:22.796Z,10.70
2018-12-27T05:24:03.529Z,9.20
2018-12-27T05:26:44.388Z,10.37
2018-12-27T05:29:25.062Z,11.43
2018-12-27T05:32:05.890Z,11.50
2018-12-27T05:34:46.784Z,10.70
2018-12-27T05:37:27.589Z,11.30
2018-12-27T05:40:08.572Z,11.57
2018-12-27T05:42:49.026Z,10.20
2018-12-27T05:45:29.517Z,10.07
2018-12-27T05:48:10.508Z,10.57
2018-12-27T05:50:50.980Z,10.80
2018-12-27T05:53:31.792Z,9.53
2018-12-27T05:56:12.564Z,11.13
2018-12-27T05:58:53.143Z,10.70
2018-12-27T06:01:34.106Z,10.40
2018-12-27T06:04:15.139Z,12.10
2018-12-27T06:06:55.863Z,10.90
2018-12-27T06:09:36.828Z,9.63
2018-12-27T06:12:17.601Z,12.67
2018-12-27T06:14:58.549Z,10.87
2018-12-27T06:17:39.161Z,11.60
2018-12-27T06:20:19.971Z,11.77
2018-12-27T06:23:00.736Z,10.37
2018-12-27T06:25:41.561Z,10.57
2018-12-27T06:28:22.090Z,11.80
2018-12-27T06:31:02.828Z,11.23
2018-12-27T06:33:43.284Z,11.97
2018-12-27T06:36:23.616Z,12.27
2018-12-27T06:39:04.882Z,12.90
2018-12-27T06:41:45.907Z,11.90
2018-12-27T06:44:26.372Z,11.80
2018-12-27T06:47:07.192Z,12.47
2018-12-27T06:49:47.909Z,12.30
2018-12-27T06:52:28.907Z,12.73
2018-12-27T06:55:09.384Z,13.47
2018-12-27T06:57:50.100Z,12.47
2018-12-27T07:00:31.113Z,12.93
2018-12-27T07:03:12.128Z,12.27
2018-12-27T07:05:53.110Z,13.40
2018-12-27T07:08:33.800Z,13.57
2018-12-27T07:11:14.383Z,14.17
2018-12-27T07:13:55.332Z,14.13
2018-12-27T07:16:36.456Z,14.80
2018-12-27T07:19:17.191Z,14.17
2018-12-27T07:21:57.779Z,15.30
2018-12-27T07:24:38.500Z,14.43
2018-12-27T07:27:19.720Z,15.20
2018-12-27T07:30:00.327Z,16.03
2018-12-27T07:32:41.152Z,17.53
2018-12-27T07:35:22.148Z,16.30
2018-12-27T07:38:02.827Z,16.73
2018-12-27T07:40:43.807Z,16.40
2018-12-27T07:43:24.222Z,16.47
2018-12-27T07:46:10.865Z,16.93
2018-12-27T07:48:47.688Z,17.60
2018-12-27T07:51:28.418Z,16.10
2018-12-27T07:54:09.557Z,17.83
2018-12-27T07:56:49.811Z,16.80
2018-12-27T07:59:30.798Z,16.27
2018-12-27T08:02:11.423Z,16.07
2018-12-27T08:04:52.160Z,15.77
2018-12-27T08:07:33.189Z,16.90
2018-12-27T08:10:13.772Z,17.33
2018-12-27T08:12:54.579Z,16.17
2018-12-27T08:15:35.462Z,17.00
2018-12-27T08:18:15.964Z,16.40
2018-12-27T08:20:59.486Z,16.37
2018-12-27T08:23:40.234Z,16.43
2018-12-27T08:26:21.549Z,16.07
2018-12-27T08:29:02.023Z,17.40
2018-12-27T08:31:42.877Z,16.73
2018-12-27T08:34:23.720Z,17.40
2018-12-27T08:37:04.396Z,15.87
2018-12-27T08:39:45.049Z,16.77
2018-12-27T08:42:25.788Z,17.10
2018-12-27T08:45:06.343Z,16.00
2018-12-27T08:47:47.302Z,14.07
2018-12-27T08:50:27.824Z,16.20
2018-12-27T08:53:08.648Z,14.83
2018-12-27T08:55:49.440Z,15.37
2018-12-27T08:58:29.760Z,15.93
2018-12-27T09:01:10.412Z,15.87
2018-12-27T09:03:51.214Z,15.20
2018-12-27T09:06:32.209Z,15.80
2018-12-27T09:09:13.390Z,16.73
2018-12-27T09:11:54.550Z,15.80
2018-12-27T09:14:35.398Z,14.17
2018-12-27T09:17:16.051Z,16.53
2018-12-27T09:19:56.732Z,15.13
2018-12-27T09:22:37.771Z,14.10
2018-12-27T09:25:18.568Z,15.00
2018-12-27T09:27:59.206Z,14.40
2018-12-27T09:30:40.090Z,16.37
2018-12-27T09:33:20.884Z,15.50
2018-12-27T09:36:01.846Z,14.50
2018-12-27T09:38:42.657Z,15.90
2018-12-27T09:41:22.987Z,17.70
2018-12-27T09:44:04.008Z,15.30
2018-12-27T09:46:44.778Z,15.90
2018-12-27T09:49:25.895Z,14.70
2018-12-27T09:52:04.534Z,15.23
2018-12-27T09:54:52.215Z,14.30
2018-12-27T09:57:40.213Z,13.73
2018-12-27T10:00:27.971Z,15.23
2018-12-27T10:03:15.674Z,15.03
2018-12-27T10:06:04.600Z,14.37
2018-12-27T10:08:53.076Z,13.97
2018-12-27T10:11:40.788Z,15.00
2018-12-27T10:14:28.488Z,15.40
2018-12-27T10:17:16.484Z,14.93
2018-12-27T10:20:04.440Z,14.97
2018-12-27T10:22:52.138Z,14.90
2018-12-27T10:25:40.185Z,13.93
2018-12-27T10:28:27.887Z,14.60
2018-12-27T10:31:15.571Z,14.37
2018-12-27T10:33:55.826Z,14.90
2018-12-27T10:36:36.579Z,15.33
2018-12-27T10:39:17.264Z,14.70
2018-12-27T10:41:58.482Z,14.20
2018-12-27T10:44:39.327Z,14.93
2018-12-27T10:47:19.857Z,14.50
2018-12-27T10:50:00.326Z,14.90
2018-12-27T10:52:40.853Z,15.20
2018-12-27T10:55:21.276Z,15.07
2018-12-27T10:58:02.090Z,14.80
2018-12-27T11:00:42.909Z,14.00
2018-12-27T11:03:30.275Z,14.93
2018-12-27T11:06:06.257Z,16.03
2018-12-27T11:08:47.144Z,14.67
2018-12-27T11:11:27.512Z,15.07
2018-12-27T11:14:08.281Z,14.20
2018-12-27T11:16:49.095Z,15.37
2018-12-27T11:19:30.040Z,13.23
2018-12-27T11:22:10.914Z,13.93
2018-12-27T11:24:51.386Z,15.50
2018-12-27T11:27:31.964Z,13.90
2018-12-27T11:30:12.607Z,14.40
2018-12-27T11:32:53.164Z,15.13
2018-12-27T11:35:33.901Z,14.50
2018-12-27T11:38:14.880Z,14.63
2018-12-27T11:40:55.449Z,14.43
2018-12-27T11:43:36.032Z,18.67
2018-12-27T11:46:16.703Z,16.03
2018-12-27T11:48:57.404Z,15.80
2018-12-27T11:51:38.548Z,15.10
2018-12-27T11:54:19.204Z,15.93
2018-12-27T11:57:00.036Z,14.67
2018-12-27T11:59:40.634Z,16.97
2018-12-27T12:02:21.353Z,15.17
2018-12-27T12:05:02.166Z,14.87
2018-12-27T12:07:42.984Z,14.67
2018-12-27T12:10:24.025Z,15.60
2018-12-27T12:13:04.958Z,16.60
2018-12-27T12:15:45.931Z,15.33
2018-12-27T12:18:26.760Z,16.17
2018-12-27T12:21:07.884Z,16.90
2018-12-27T12:23:48.437Z,17.13
2018-12-27T12:26:29.319Z,18.53
2018-12-27T12:29:09.544Z,17.30
2018-12-27T12:31:50.544Z,18.27
2018-12-27T12:34:31.420Z,18.00
2018-12-27T12:37:14.209Z,17.30
2018-12-27T12:39:55.054Z,17.93
2018-12-27T12:42:35.751Z,18.47
2018-12-27T12:45:16.932Z,17.90
2018-12-27T12:47:57.707Z,17.77
2018-12-27T12:50:38.160Z,17.13
2018-12-27T12:53:18.569Z,17.43
2018-12-27T12:55:59.466Z,16.43
2018-12-27T12:58:39.889Z,17.53
2018-12-27T13:01:20.738Z,17.80
2018-12-27T13:04:01.271Z,18.57
2018-12-27T13:06:42.129Z,18.57
2018-12-27T13:09:22.724Z,18.90
2018-12-27T13:12:03.292Z,18.57
2018-12-27T13:14:44.072Z,18.53
2018-12-27T13:17:24.885Z,17.23
2018-12-27T13:20:05.276Z,18.63
2018-12-27T13:22:46.045Z,18.60
2018-12-27T13:25:26.852Z,19.00
2018-12-27T13:28:07.413Z,18.23
2018-12-27T13:30:47.969Z,21.47
2018-12-27T13:33:28.607Z,24.40
2018-12-27T13:36:09.512Z,21.73
2018-12-27T13:38:50.045Z,19.70
2018-12-27T13:41:30.568Z,18.73
2018-12-27T13:44:11.473Z,18.17
2018-12-27T13:46:51.942Z,19.67
2018-12-27T13:49:32.719Z,18.93
2018-12-27T13:52:13.628Z,20.37
2018-12-27T13:54:54.693Z,20.07
2018-12-27T13:57:35.264Z,19.10
2018-12-27T14:00:15.951Z,18.40
2018-12-27T14:02:56.449Z,18.77
2018-12-27T14:05:37.075Z,17.47
2018-12-27T14:08:18.847Z,18.07
2018-12-27T14:10:59.224Z,18.10
2018-12-27T14:13:40.017Z,16.70
2018-12-27T14:16:20.608Z,16.40
2018-12-27T14:19:01.634Z,18.07
2018-12-27T14:21:42.815Z,16.37
2018-12-27T14:24:23.522Z,17.20
2018-12-27T14:27:04.413Z,16.63
2018-12-27T14:29:45.046Z,15.93
2018-12-27T14:32:25.879Z,16.57
2018-12-27T14:35:06.581Z,16.17
2018-12-27T14:37:47.343Z,17.30
2018-12-27T14:40:28.073Z,15.47
2018-12-27T14:43:08.772Z,16.27
2018-12-27T14:45:49.504Z,16.33
2018-12-27T14:48:30.700Z,16.87
2018-12-27T14:51:11.409Z,17.10
2018-12-27T14:53:51.864Z,15.10
2018-12-27T14:56:32.504Z,14.77
2018-12-27T14:59:13.382Z,14.10
2018-12-27T15:01:54.234Z,15.87
2018-12-27T15:04:35.210Z,13.83
2018-12-27T15:07:16.020Z,14.17
2018-12-27T15:09:56.551Z,14.33
2018-12-27T15:12:37.079Z,14.73
2018-12-27T15:15:17.740Z,14.00
2018-12-27T15:17:58.581Z,17.97
2018-12-27T15:20:39.506Z,15.73
2018-12-27T15:23:20.526Z,14.90
2018-12-27T15:26:00.980Z,15.53
2018-12-27T15:28:41.863Z,16.03
2018-12-27T15:31:22.395Z,15.93
2018-12-27T15:34:03.372Z,16.57
2018-12-27T15:36:44.445Z,14.83
2018-12-27T15:39:25.335Z,16.03
2018-12-27T15:42:06.088Z,15.80
2018-12-27T15:44:46.984Z,15.93
2018-12-27T15:47:27.889Z,15.47
2018-12-27T15:50:08.656Z,14.53
2018-12-27T15:52:49.362Z,15.83
2018-12-27T15:55:30.038Z,16.30
2018-12-27T15:58:10.893Z,17.43
2018-12-27T16:00:51.429Z,16.77
2018-12-27T16:03:31.970Z,17.27
2018-12-27T16:06:13.096Z,17.40
2018-12-27T16:08:53.820Z,16.50
2018-12-27T16:11:34.320Z,16.47
2018-12-27T16:14:15.003Z,17.07
2018-12-27T16:16:55.921Z,17.37
2018-12-27T16:19:36.748Z,16.13
2018-12-27T16:22:17.543Z,16.17
2018-12-27T16:24:58.040Z,16.40
2018-12-27T16:27:39.077Z,16.00
2018-12-27T16:30:19.952Z,15.00
2018-12-27T16:33:00.911Z,15.17
2018-12-27T16:35:41.756Z,15.93
2018-12-27T16:38:22.540Z,14.90
2018-12-27T16:41:03.296Z,16.03
2018-12-27T16:43:43.984Z,15.70
2018-12-27T16:46:25.209Z,15.53
2018-12-27T16:49:05.823Z,16.03
2018-12-27T16:51:46.483Z,16.23
2018-12-27T16:54:27.117Z,17.07
2018-12-27T16:57:08.046Z,17.23
2018-12-27T16:59:48.861Z,15.63
2018-12-27T17:02:29.864Z,15.03
2018-12-27T17:05:10.458Z,16.67
2018-12-27T17:07:51.298Z,16.97
2018-12-27T17:10:32.249Z,17.20
2018-12-27T17:13:12.993Z,17.43
2018-12-27T17:15:54.224Z,19.03
2018-12-27T17:18:35.355Z,17.73
2018-12-27T17:21:15.718Z,17.13
2018-12-27T17:23:56.821Z,17.57
2018-12-27T17:26:37.031Z,17.27
2018-12-27T17:29:17.991Z,17.17
2018-12-27T17:31:58.832Z,17.20
2018-12-27T17:34:39.399Z,19.40
2018-12-27T17:37:23.315Z,18.37
2018-12-27T17:40:02.597Z,18.50
2018-12-27T17:42:43.227Z,18.60
2018-12-27T17:45:23.996Z,20.17
2018-12-27T17:48:07.946Z,19.43
2018-12-27T17:50:48.400Z,18.50
2018-12-27T17:53:29.076Z,20.70
2018-12-27T17:56:09.917Z,19.77
2018-12-27T17:58:50.731Z,20.13
2018-12-27T18:01:31.418Z,20.00
2018-12-27T18:04:12.469Z,19.90
2018-12-27T18:06:53.208Z,19.37
2018-12-27T18:09:33.684Z,20.57
2018-12-27T18:12:14.693Z,19.40
2018-12-27T18:14:55.050Z,20.80
2018-12-27T18:17:35.681Z,22.00
2018-12-27T18:20:16.961Z,22.43
2018-12-27T18:22:57.296Z,21.30
2018-12-27T18:25:38.215Z,22.47
2018-12-27T18:28:18.825Z,22.23
2018-12-27T18:30:59.348Z,27.03
2018-12-27T18:33:39.941Z,22.57
2018-12-27T18:36:20.667Z,23.03
2018-12-27T18:39:01.428Z,20.83
2018-12-27T18:41:42.194Z,21.30
2018-12-27T18:44:22.904Z,24.43
2018-12-27T18:47:03.912Z,23.93
2018-12-27T18:49:45.011Z,22.23
2018-12-27T18:52:26.052Z,23.10
2018-12-27T18:55:07.725Z,23.77
2018-12-27T18:57:48.604Z,21.87
2018-12-27T19:00:29.344Z,22.50
2018-12-27T19:03:10.154Z,21.87
2018-12-27T19:05:50.763Z,22.07
2018-12-27T19:08:31.530Z,22.17
2018-12-27T19:11:12.344Z,20.00
2018-12-27T19:13:52.826Z,22.83
2018-12-27T19:16:33.300Z,22.63
2018-12-27T19:19:14.195Z,21.50
2018-12-27T19:21:54.993Z,21.47
2018-12-27T19:24:35.283Z,21.23
2018-12-27T19:27:16.429Z,32.20
2018-12-27T19:29:56.846Z,25.70
2018-12-27T19:32:37.360Z,22.57
2018-12-27T19:35:18.096Z,22.97
2018-12-27T19:37:59.089Z,21.67
2018-12-27T19:40:40.096Z,20.97
2018-12-27T19:43:21.009Z,21.70
2018-12-27T19:46:01.561Z,22.70
2018-12-27T19:48:42.898Z,21.20
2018-12-27T19:51:23.832Z,22.63
2018-12-27T19:54:04.280Z,22.07
2018-12-27T19:56:45.277Z,23.30
2018-12-27T19:59:26.086Z,23.50
2018-12-27T20:02:06.666Z,23.63
2018-12-27T20:04:47.284Z,25.60
2018-12-27T20:07:28.170Z,23.13
2018-12-27T20:10:08.829Z,22.63
2018-12-27T20:12:49.517Z,23.30
2018-12-27T20:15:29.956Z,21.63
2018-12-27T20:18:10.884Z,23.73
2018-12-27T20:20:51.343Z,22.27
2018-12-27T20:23:32.232Z,23.80
2018-12-27T20:26:13.227Z,23.40
2018-12-27T20:28:53.943Z,25.30
2018-12-27T20:31:22.256Z,22.03
2018-12-27T20:33:50.800Z,24.07
2018-12-27T20:36:19.121Z,24.73
2018-12-27T20:38:47.394Z,25.90
2018-12-27T20:41:15.684Z,25.33
2018-12-27T20:43:44.019Z,24.33
2018-12-27T20:46:12.268Z,23.97
2018-12-27T20:48:40.559Z,24.83
2018-12-27T20:51:08.894Z,24.80
2018-12-27T20:53:37.174Z,26.13
2018-12-27T20:56:05.416Z,24.23
2018-12-27T20:58:33.709Z,24.80
2018-12-27T21:01:01.978Z,25.40
2018-12-27T21:03:30.260Z,24.83
2018-12-27T21:05:58.518Z,26.03
2018-12-27T21:08:26.856Z,25.03
2018-12-27T21:10:55.184Z,24.67
2018-12-27T21:13:23.476Z,24.30
2018-12-27T21:15:51.732Z,25.23
2018-12-27T21:18:20.040Z,27.03
2018-12-27T21:20:48.544Z,24.20
2018-12-27T21:23:16.818Z,26.43
2018-12-27T21:25:45.080Z,25.60
2018-12-27T21:28:13.358Z,25.10
2018-12-27T21:30:41.716Z,25.40
2018-12-27T21:33:10.339Z,24.53
2018-12-27T21:35:38.661Z,25.10
2018-12-27T21:38:06.898Z,24.53
2018-12-27T21:40:35.174Z,24.30
2018-12-27T21:43:03.427Z,24.20
2018-12-27T21:45:31.947Z,22.57
2018-12-27T21:48:00.221Z,25.00
2018-12-27T21:50:28.518Z,23.20
2018-12-27T21:52:56.758Z,23.87
2018-12-27T21:55:25.033Z,22.50
2018-12-27T21:57:53.586Z,21.23
2018-12-27T22:00:21.959Z,23.37
2018-12-27T22:02:50.219Z,24.50
2018-12-27T22:05:18.522Z,24.60
2018-12-27T22:07:46.771Z,21.93
2018-12-27T22:10:15.053Z,23.83
2018-12-27T22:12:43.309Z,22.80
2018-12-27T22:15:11.578Z,25.90
2018-12-27T22:17:39.865Z,23.37
2018-12-27T22:20:08.433Z,24.37
2018-12-27T22:22:36.700Z,23.40
2018-12-27T22:25:05.334Z,25.27
2018-12-27T22:27:33.580Z,24.57
2018-12-27T22:30:01.922Z,23.97
2018-12-27T22:32:30.183Z,23.37
2018-12-27T22:34:58.457Z,23.27
2018-12-27T22:37:27.105Z,22.80
2018-12-27T22:39:55.456Z,25.00
2018-12-27T22:42:23.881Z,24.83
2018-12-27T22:44:52.178Z,25.57
2018-12-27T22:47:20.432Z,24.00
2018-12-27T22:49:48.935Z,25.53
2018-12-27T22:52:17.204Z,23.43
2018-12-27T22:54:45.743Z,24.73
2018-12-27T22:57:14.298Z,23.17
2018-12-27T22:59:42.548Z,24.23
2018-12-27T23:02:10.819Z,23.50
2018-12-27T23:04:39.073Z,23.63
2018-12-27T23:07:07.357Z,25.23
2018-12-27T23:09:35.624Z,24.60
2018-12-27T23:12:03.913Z,25.37
2018-12-27T23:14:32.170Z,26.63
2018-12-27T23:17:00.450Z,27.53
2018-12-27T23:19:28.765Z,26.03
2018-12-27T23:21:57.028Z,26.23
2018-12-27T23:24:25.275Z,25.23
2018-12-27T23:26:53.552Z,26.03
2018-12-27T23:29:21.803Z,26.10
2018-12-27T23:31:50.059Z,26.73
2018-12-27T23:34:18.582Z,26.60
2018-12-27T23:36:46.851Z,24.93
2018-12-27T23:39:15.104Z,25.90
2018-12-27T23:41:43.372Z,25.47
2018-12-27T23:44:11.621Z,25.57
2018-12-27T23:46:39.885Z,24.97
2018-12-27T23:49:08.133Z,26.17
2018-12-27T23:51:36.402Z,25.00
2018-12-27T23:54:04.648Z,25.67
2018-12-27T23:56:32.920Z,26.87
2018-12-27T23:59:01.162Z,26.13
